Metar Cercanos

 

LEPA - Palma De Mallorc, Spain
Distance from station: ONO 38km
Actualización: Thu, 13-May-2021 7:30pm CEST
Despejado
Despejado
 Viento del SO
Viento: SO 19 km/h
Temperatura: 20°C
Rocío: 9°C
Humedad: 49%
Barómetro: 1012 hPa
Resumen: Despejado
Visibility: greater than 10 km
2021/05/13 17:30 LEPA 131730Z 22010KT CAVOK 20/09 Q1012 NOSIG
LEMH - Mahon/Menorca Is, Spain
Distance from station: ENE 105km
Actualización: Thu, 13-May-2021 7:30pm CEST
Few Clouds
Few Clouds
 Viento del SO
Viento: SO 15 km/h
Temperatura: 18°C
Rocío: 14°C
Humedad: 78%
Barómetro: 1013 hPa
Clouds: Few Clouds
Visibility: 10 km
Cloud details: Few Clouds 427 m
2021/05/13 17:30 LEMH 131730Z 23008KT 190V250 9999 FEW014 18/14 Q1013
 
LEIB - Ibiza/Es Codola, Spain
Distance from station: OSO 165km
Actualización: Thu, 13-May-2021 7:30pm CEST
Despejado
Despejado
 Viento del SO
Viento: SO 17 km/h
Temperatura: 19°C
Rocío: 13°C
Humedad: 68%
Barómetro: 1012 hPa
Resumen: Despejado
Visibility: greater than 10 km
2021/05/13 17:30 LEIB 131730Z 22009KT 190V250 CAVOK 19/13 Q1012 NOSIG
LEBL - Barcelona Airpor, Spain
Distance from station: NNO 225km
Actualización: Thu, 13-May-2021 7:30pm CEST
Few Clouds
Few Clouds
 Viento del OSO
Viento: OSO 48 km/h
Temperatura: 18°C
Rocío: 13°C
Humedad: 73%
Barómetro: 1010 hPa
Clouds: Few Clouds
Visibility: 10 km
Cloud details: Few Clouds 1524 m
2021/05/13 17:30 LEBL 131730Z 24026KT 9999 FEW050 18/13 Q1010 NOSIG
 
LEVC - Valencia (civ/Mi, Spain
Distance from station: NO 188km
Actualización: Thu, 13-May-2021 7:30pm CEST
Few Clouds
Few Clouds
 Viento del O
Viento: O 28 km/h
Temperatura: 26°C
Rocío: 6°C
Humedad: 28%
Barómetro: 1009 hPa
Clouds: Few Clouds
Visibility: 10 km
Cloud details: Few Clouds 1219 m
2021/05/13 17:30 LEVC 131730Z 27015KT 9999 FEW040 26/06 Q1009 NOSIG
LEGE - Gerona/Costa Bra, Spain
Distance from station: N 276km
Actualización: Thu, 13-May-2021 7:30pm CEST
Few Clouds
Few Clouds
 Viento del S
Viento: S 11 km/h
Temperatura: 17°C
Rocío: 11°C
Humedad: 68%
Barómetro: 1008 hPa
Clouds: Few Clouds
Visibility: 10 km
Cloud details: Few Clouds 914 m
2021/05/13 17:30 LEGE 131730Z 18006KT 120V270 9999 FEW030 17/11 Q1008
 
LEAL - Alicante/El Alte, Spain
Distance from station: OSO 344km
Actualización: Thu, 13-May-2021 7:30pm CEST
Few Clouds
Few Clouds
 Viento del S
Viento: S 22 km/h
Temperatura: 22°C
Rocío: 10°C
Humedad: 47%
Barómetro: 1012 hPa
Clouds: Few Clouds
Visibility: 10 km
Cloud details: Few Clouds 1524 m
2021/05/13 17:30 LEAL 131730Z 18012KT 130V230 9999 FEW050 22/10 Q1012 NOSIG
LEAM - Almeria Airport, Spain
Distance from station: SSO 56km
Actualización: Thu, 13-May-2021 7:30pm CEST
Despejado
Despejado
 Viento del varies
Viento: varies 4 km/h
Temperatura: 20°C
Rocío: 15°C
Humedad: 73%
Barómetro: 1013 hPa
Resumen: Despejado
Visibility: greater than 10 km
2021/05/13 17:30 LEAM 131730Z VRB02KT CAVOK 20/15 Q1013
 
LEZG - Zaragoza (mil/Ci, Spain
Distance from station: NO 431km
Actualización: Thu, 13-May-2021 7:30pm CEST
Muy nuboso
Muy nuboso
 Viento del SE
Viento: SE 9 km/h
Temperatura: 14°C
Rocío: 12°C
Humedad: 88%
Barómetro: 1011 hPa
Clouds: Muy nuboso
Visibility: 9 km
Cloud details: Parcialmente nuboso 1768 m
Muy nuboso 2286 m
2021/05/13 17:30 LEZG 131730Z 14005KT 110V170 9000 SCT058 BKN075 14/12 Q1011
LEMD - Madrid/Barajas, Spain
Distance from station: ONO 234km
Actualización: Thu, 13-May-2021 7:30pm CEST
Muy nuboso
Muy nuboso
 Viento del SO
Viento: SO 28 km/h
Temperatura: 21°C
Rocío: 9°C
Humedad: 46%
Barómetro: 1013 hPa
Clouds: Muy nuboso
Visibility: 10 km
Cloud details: Parcialmente nuboso 1524 m
Muy nuboso 1829 m
2021/05/13 17:30 LEMD 131730Z 23015KT 9999 SCT050 BKN060 21/09 Q1013 NOSIG
 
LEGR - Granada Airport, Spain
Distance from station: OSO 62km
Actualización: Thu, 13-May-2021 7:30pm CEST
Few Clouds
Few Clouds
 Viento del O
Viento: O 26 km/h
Temperatura: 24°C
Rocío: 6°C
Humedad: 31%
Barómetro: 1016 hPa
Clouds: Few Clouds
Visibility: 10 km
Cloud details: Few Clouds 2134 m
2021/05/13 17:30 LEGR 131730Z 27014KT 240V320 9999 FEW070 24/06 Q1016
LEMG - Malaga (civ/Mil), Spain
Distance from station: OSO 227km
Actualización: Thu, 13-May-2021 7:30pm CEST
Despejado
Despejado
 Viento del NNO
Viento: NNO 19 km/h
Temperatura: 29°C
Rocío: 7°C
Humedad: 25%
Barómetro: 1014 hPa
Resumen: Despejado
Visibility: greater than 10 km
2021/05/13 17:30 LEMG 131730Z 33010KT 290V010 CAVOK 29/07 Q1014 NOSIG
 
LEZL - Sevilla (civ/Mil, Spain
Distance from station: S 318km
Actualización: Thu, 13-May-2021 7:30pm CEST
Despejado
Despejado
 Viento del NO
Viento: NO 15 km/h
Temperatura: 27°C
Rocío: 10°C
Humedad: 34%
Barómetro: 1015 hPa
Resumen: Despejado
Visibility: greater than 10 km
2021/05/13 17:30 LEZL 131730Z 31008KT 280V340 CAVOK 27/10 Q1015 NOSIG
LEVT - Vitoria, Spain
Distance from station: NO 226km
Actualización: Thu, 13-May-2021 7:30pm CEST
Muy nuboso
Muy nuboso
 Viento del NNO
Viento: NNO 11 km/h
Temperatura: 14°C
Rocío: 11°C
Humedad: 82%
Barómetro: 1011 hPa
Clouds: Muy nuboso
Visibility: 10 km
Cloud details: Few Clouds 549 m
Muy nuboso 1676 m
2021/05/13 17:30 LEVT 131730Z 34006KT 310V030 9999 FEW018 BKN055 14/11 Q1011
 
LEBB - Bilbao/Sondica, Spain
Distance from station: NNO 235km
Actualización: Thu, 13-May-2021 7:30pm CEST
Lluvia débil, Muy nuboso
Lluvia débil, Muy nuboso
 Viento del NO
Viento: NO 9 km/h, Racha: 31 km/h
Temperatura: 14°C
Rocío: 13°C
Humedad: 94%
Barómetro: 1012 hPa
Resumen: Lluvia débil
Clouds: Muy nuboso
Visibility: 8 km
Cloud details: Few Clouds 244 m
Parcialmente nuboso 457 m
Muy nuboso 914 m
2021/05/13 17:30 LEBB 131730Z 32005G17KT 270V360 8000 -RA FEW008 SCT015 BKN030 14/13 Q1012 TEMPO 3000 RA
LESO - San Sebastian/Fu, Spain
Distance from station: N 231km
Actualización: Thu, 13-May-2021 7:30pm CEST
Lluvia débil, Muy nuboso
Lluvia débil, Muy nuboso
 Viento del varies
Viento: varies 4 km/h
Temperatura: 14°C
Rocío: 13°C
Humedad: 94%
Barómetro: 1011 hPa
Resumen: Lluvia débil
Clouds: Muy nuboso
Visibility: 10 km
Cloud details: Parcialmente nuboso 305 m
Muy nuboso 610 m
Muy nuboso 1097 m
2021/05/13 17:30 LESO 131730Z VRB02KT 9999 -RA SCT010 BKN020 BKN036 14/13 Q1011
 
LEVD - Valladolid(Mil/C, Spain
Distance from station: ONO 239km
Actualización: Thu, 13-May-2021 7:30pm CEST
Parcialmente nuboso
Parcialmente nuboso
 Viento del O
Viento: O 44 km/h, Racha: 63 km/h
Temperatura: 16°C
Rocío: 10°C
Humedad: 68%
Barómetro: 1012 hPa
Clouds: Parcialmente nuboso
Visibility: 10 km
Cloud details: Few Clouds 823 m
Parcialmente nuboso 975 m
2021/05/13 17:30 LEVD 131730Z 26024G34KT 9999 FEW027 SCT032 16/10 Q1012
LESA - Salamanca (civ/M, Spain
Distance from station: ONO 349km
Actualización: Thu, 13-May-2021 7:30pm CEST
Parcialmente nuboso
Parcialmente nuboso
 Viento del O
Viento: O 39 km/h, Racha: 59 km/h
Temperatura: 16°C
Rocío: 8°C
Humedad: 59%
Barómetro: 1014 hPa
Clouds: Parcialmente nuboso
Visibility: 10 km
Cloud details: Parcialmente nuboso 914 m
2021/05/13 17:30 LESA 131730Z 27021G32KT 240V300 9999 SCT030 16/08 Q1014 WS ALL RWY
 
LEXJ - Santander/Paraya, Spain
Distance from station: NNO 247km
Actualización: Thu, 13-May-2021 7:30pm CEST
Mist, Muy nuboso
Mist, Muy nuboso
 Viento del NO
Viento: NO 19 km/h
Temperatura: 13°C
Rocío: 12°C
Humedad: 94%
Barómetro: 1013 hPa
Resumen: Mist
Clouds: Muy nuboso
Visibility: 5 km
Cloud details: Few Clouds 213 m
Muy nuboso 366 m
2021/05/13 17:30 LEXJ 131730Z 32010KT 290V020 5000 BR FEW007 BKN012 13/12 Q1013 RERA
LEAS - Asturias/Aviles, Spain
Distance from station: NO 214km
Actualización: Thu, 13-May-2021 7:30pm CEST
Muy nuboso
Muy nuboso
 Viento del NO
Viento: NO 13 km/h
Temperatura: 12°C
Rocío: 10°C
Humedad: 88%
Barómetro: 1015 hPa
Clouds: Muy nuboso
Visibility: 10 km
Cloud details: Few Clouds 274 m
Parcialmente nuboso 457 m
Muy nuboso 610 m
2021/05/13 17:30 LEAS 131730Z 32007KT 260V360 9999 2500S FEW009 SCT015 BKN020 12/10 Q1015 NOSIG
 
LECO - La Coruna/Alvedr, Spain
Distance from station: ONO 222km
Actualización: Thu, 13-May-2021 7:30pm CEST
Muy nuboso
Muy nuboso
 Viento del NNO
Viento: NNO 11 km/h
Temperatura: 13°C
Rocío: 10°C
Humedad: 82%
Barómetro: 1017 hPa
Clouds: Muy nuboso
Visibility: 10 km
Cloud details: Muy nuboso 671 m
Muy nuboso 853 m
2021/05/13 17:30 LECO 131730Z 33006KT 290V030 9999 BKN022 BKN028 13/10 Q1017 NOSIG
LEVX - Vigo/Peinador, Spain
Distance from station: O 214km
Actualización: Thu, 13-May-2021 7:30pm CEST
Muy nuboso
Muy nuboso
 Viento del O
Viento: O 11 km/h
Temperatura: 14°C
Rocío: 12°C
Humedad: 88%
Barómetro: 1017 hPa
Clouds: Muy nuboso
Visibility: 10 km
Cloud details: Parcialmente nuboso 366 m
Muy nuboso 1067 m
2021/05/13 17:30 LEVX 131730Z 28006KT 240V010 9999 SCT012 BKN035 14/12 Q1017 NOSIG